Time;durP1;ratioP1;P1;durP2;ratioP2;P2;SDS_P1;SDS_P2;PMS_P1;PMS_P2;Temp;Humidity;BMP_temperature;BMP_pressure;BME280_temperature;BME280_humidity;BME280_pressure;Samples;Min_cycle;Max_cycle;Signal;HPM_P1;HPM_P2
2021/09/02 00:00:45;;;;;;;10.70;4.50;;;;;;;14.08;76.83;98875.48;115561;1205;22312;-57
2021/09/02 00:03:14;;;;;;;6.90;4.00;;;;;;;14.02;76.97;98877.81;115489;1211;22327;-58
2021/09/02 00:05:42;;;;;;;8.40;4.30;;;;;;;13.96;77.24;98881.08;115558;1202;137648;-58
2021/09/02 00:08:10;;;;;;;9.30;4.50;;;;;;;13.91;77.20;98880.48;115578;1204;22227;-58
2021/09/02 00:10:38;;;;;;;10.30;4.50;;;;;;;13.87;77.34;98881.52;115453;1201;138008;-57
2021/09/02 00:13:19;;;;;;;9.70;4.90;;;;;;;13.85;77.38;98885.35;115629;1205;22287;-58
2021/09/02 00:16:07;;;;;;;7.70;4.40;;;;;;;13.78;77.35;98884.83;115630;1210;22757;-58
2021/09/02 00:18:35;;;;;;;7.40;4.90;;;;;;;13.75;77.54;98884.70;115466;1202;137259;-58
2021/09/02 00:21:10;;;;;;;7.70;4.50;;;;;;;13.73;77.62;98885.00;115578;1205;22346;-58
2021/09/02 00:23:38;;;;;;;10.10;5.20;;;;;;;13.71;77.83;98882.55;115475;1201;137955;-57
2021/09/02 00:26:06;;;;;;;10.40;5.30;;;;;;;13.70;77.91;98885.22;115584;1209;22351;-58
2021/09/02 00:28:34;;;;;;;9.30;5.90;;;;;;;13.68;77.95;98887.92;115467;1201;138271;-58
2021/09/02 00:31:03;;;;;;;13.30;5.50;;;;;;;13.66;78.05;98887.73;115650;1203;22535;-58
2021/09/02 00:33:31;;;;;;;11.90;6.00;;;;;;;13.67;78.16;98892.05;115559;1205;23077;-58
2021/09/02 00:36:09;;;;;;;10.40;5.50;;;;;;;13.68;78.18;98889.85;115516;1202;137871;-58
2021/09/02 00:38:38;;;;;;;8.30;5.00;;;;;;;13.68;78.23;98887.60;115601;1205;22346;-58
2021/09/02 00:41:06;;;;;;;9.90;5.30;;;;;;;13.68;78.24;98887.65;112089;1202;137661;-57
2021/09/02 00:43:38;;;;;;;8.00;5.10;;;;;;;13.68;78.30;98891.21;115593;1205;25042;-58
2021/09/02 00:46:07;;;;;;;8.10;4.90;;;;;;;13.68;78.35;98889.67;115611;1204;22264;-58
2021/09/02 00:48:37;;;;;;;6.60;4.80;;;;;;;13.66;78.37;98895.29;115447;1201;137330;-58
2021/09/02 00:51:05;;;;;;;6.80;4.30;;;;;;;13.63;78.53;98891.38;115487;1205;23037;-58
2021/09/02 00:53:33;;;;;;;11.70;5.20;;;;;;;13.56;78.67;98888.06;115505;1199;137549;-58
2021/09/02 00:56:01;;;;;;;7.80;5.10;;;;;;;13.54;78.95;98891.34;115612;1210;22315;-58
2021/09/02 00:58:29;;;;;;;8.80;5.10;;;;;;;13.51;79.00;98894.05;115495;1201;139437;-57
2021/09/02 01:00:57;;;;;;;7.10;5.20;;;;;;;13.48;79.27;98893.58;115650;1205;22101;-57
2021/09/02 01:03:25;;;;;;;9.00;5.30;;;;;;;13.44;79.45;98891.17;115675;1210;22322;-58
2021/09/02 01:05:54;;;;;;;9.30;4.70;;;;;;;13.39;79.55;98888.55;115594;1203;137655;-58
2021/09/02 01:08:22;;;;;;;14.10;4.60;;;;;;;13.37;79.52;98893.17;115649;1210;22313;-58
2021/09/02 01:10:51;;;;;;;7.60;4.80;;;;;;;13.35;79.73;98895.27;115479;1201;138968;-57
2021/09/02 01:13:22;;;;;;;11.20;5.30;;;;;;;13.32;79.94;98894.21;115752;1202;23412;-58
2021/09/02 01:15:53;;;;;;;9.20;5.20;;;;;;;13.29;80.17;98890.84;115728;1202;23007;-58
2021/09/02 01:18:21;;;;;;;9.10;4.50;;;;;;;13.27;80.15;98899.30;115534;1201;137726;-58
2021/09/02 01:20:49;;;;;;;9.60;5.30;;;;;;;13.24;80.30;98901.15;115713;1210;22339;-58
2021/09/02 01:23:21;;;;;;;10.20;5.10;;;;;;;13.23;80.68;98900.07;115518;1201;137673;-58
2021/09/02 01:25:49;;;;;;;9.20;4.50;;;;;;;13.26;80.76;98899.16;115713;1202;22311;-58
2021/09/02 01:28:17;;;;;;;8.60;4.50;;;;;;;13.28;80.79;98900.77;115596;1201;139621;-58
2021/09/02 01:30:45;;;;;;;7.50;5.00;;;;;;;13.29;80.84;98898.39;115726;1205;23392;-58
2021/09/02 01:33:15;;;;;;;8.90;4.90;;;;;;;13.29;80.83;98896.44;115719;1202;22334;-57
2021/09/02 01:35:44;;;;;;;7.90;4.80;;;;;;;13.30;80.92;98900.52;115624;1201;137761;-58
2021/09/02 01:38:12;;;;;;;8.00;4.90;;;;;;;13.29;81.00;98896.80;115736;1201;22319;-58
2021/09/02 01:40:42;;;;;;;8.00;4.70;;;;;;;13.27;81.04;98890.70;115540;1200;137670;-58
2021/09/02 01:43:13;;;;;;;10.00;4.80;;;;;;;13.27;81.13;98893.83;115586;1204;22373;-57
2021/09/02 01:45:42;;;;;;;11.30;4.40;;;;;;;13.28;81.29;98891.69;115737;1203;22324;-58
2021/09/02 01:48:10;;;;;;;9.00;5.10;;;;;;;13.29;81.40;98890.45;115598;1192;138982;-58
2021/09/02 01:50:42;;;;;;;9.70;4.90;;;;;;;13.29;81.38;98891.39;115708;1202;22389;-58
2021/09/02 01:53:13;;;;;;;10.90;5.00;;;;;;;13.29;81.24;98888.71;115607;1202;137693;-58
2021/09/02 01:55:42;;;;;;;9.80;5.30;;;;;;;13.29;81.50;98887.89;115605;1210;23098;-58
2021/09/02 01:58:10;;;;;;;7.10;4.70;;;;;;;13.28;81.39;98885.16;115756;1202;22376;-59
2021/09/02 02:00:38;;;;;;;10.10;5.20;;;;;;;13.29;81.46;98884.23;115595;1201;138295;-58
2021/09/02 02:03:06;;;;;;;10.30;5.00;;;;;;;13.29;81.49;98884.73;115698;1202;22428;-58
2021/09/02 02:05:35;;;;;;;8.00;4.90;;;;;;;13.30;81.58;98883.45;115647;1208;138224;-58
2021/09/02 02:08:04;;;;;;;8.80;4.60;;;;;;;13.31;81.65;98879.23;115698;1202;22093;-58
2021/09/02 02:10:33;;;;;;;7.40;5.00;;;;;;;13.32;81.56;98883.77;115530;1199;137807;-58
2021/09/02 02:13:01;;;;;;;11.10;5.30;;;;;;;13.33;81.57;98889.61;115670;1202;22381;-58
2021/09/02 02:15:30;;;;;;;7.20;4.60;;;;;;;13.33;81.54;98890.21;115658;1209;22320;-58
2021/09/02 02:17:58;;;;;;;7.50;5.00;;;;;;;13.31;81.71;98891.37;115613;1198;137558;-58
2021/09/02 02:20:25;;;;;;;10.50;5.50;;;;;;;13.30;81.79;98891.77;115679;1204;22325;-58
2021/09/02 02:22:53;;;;;;;5.80;4.50;;;;;;;13.33;82.00;98895.08;115597;1202;138398;-58
2021/09/02 02:25:21;;;;;;;8.70;5.30;;;;;;;13.36;81.87;98891.44;115723;1201;22247;-58
2021/09/02 02:27:49;;;;;;;6.80;4.70;;;;;;;13.36;82.05;98892.38;115726;1209;22214;-58
2021/09/02 02:30:18;;;;;;;11.10;5.50;;;;;;;13.38;82.13;98895.36;115453;1201;138059;-58
2021/09/02 02:32:55;;;;;;;9.30;5.20;;;;;;;13.40;82.09;98898.52;115702;1203;22231;-59
2021/09/02 02:35:24;;;;;;;10.60;6.00;;;;;;;13.40;82.07;98903.33;115569;1200;137600;-58
2021/09/02 02:37:52;;;;;;;14.70;5.20;;;;;;;13.39;82.07;98898.47;115752;1201;23114;-58
2021/09/02 02:40:26;;;;;;;7.80;5.60;;;;;;;13.37;82.33;98901.00;115573;1199;137978;-58
2021/09/02 02:42:56;;;;;;;10.10;5.80;;;;;;;13.35;82.36;98900.15;115776;1202;22356;-58
2021/09/02 02:45:24;;;;;;;7.70;5.30;;;;;;;13.34;82.19;98901.80;115727;1197;23022;-58
2021/09/02 02:47:52;;;;;;;9.20;5.70;;;;;;;13.34;82.19;98900.05;115580;1199;138140;-58
2021/09/02 02:50:39;;;;;;;9.70;6.50;;;;;;;13.33;82.25;98899.56;115648;1204;26036;-58
2021/09/02 02:53:08;;;;;;;9.00;6.20;;;;;;;13.32;82.14;98897.00;115620;1201;138495;-58
2021/09/02 02:55:36;;;;;;;9.30;5.30;;;;;;;13.33;82.28;98899.67;115550;1204;22297;-59
2021/09/02 02:58:04;;;;;;;9.90;6.40;;;;;;;13.33;82.15;98901.75;115763;1202;22116;-58
2021/09/02 03:00:32;;;;;;;7.90;5.70;;;;;;;13.33;82.00;98900.55;115564;1199;139065;-58
2021/09/02 03:03:01;;;;;;;7.40;5.30;;;;;;;13.33;82.01;98902.74;115580;1203;22344;-58
2021/09/02 03:05:29;;;;;;;11.70;6.00;;;;;;;13.32;81.97;98904.66;115595;1199;137461;-59
2021/09/02 03:07:57;;;;;;;9.80;5.50;;;;;;;13.30;81.88;98902.93;115701;1202;22296;-58
2021/09/02 03:10:45;;;;;;;13.20;6.00;;;;;;;13.28;81.94;98900.54;115537;1198;138161;-59
2021/09/02 03:13:13;;;;;;;9.30;5.60;;;;;;;13.28;81.93;98902.02;115734;1203;22439;-58
2021/09/02 03:15:41;;;;;;;15.20;6.50;;;;;;;13.28;81.92;98901.37;115705;1209;23217;-59
2021/09/02 03:18:09;;;;;;;10.70;6.00;;;;;;;13.30;81.91;98903.97;115582;1199;137977;-58
2021/09/02 03:20:37;;;;;;;9.00;5.30;;;;;;;13.31;81.96;98905.27;115787;1203;23080;-58
2021/09/02 03:23:05;;;;;;;8.40;5.90;;;;;;;13.32;81.93;98903.08;115557;1199;137705;-59
2021/09/02 03:25:33;;;;;;;6.30;5.20;;;;;;;13.34;81.80;98907.05;115736;1209;22362;-58
2021/09/02 03:28:01;;;;;;;7.10;5.30;;;;;;;13.36;81.60;98905.17;115809;1202;22198;-59
2021/09/02 03:30:30;;;;;;;8.20;5.80;;;;;;;13.36;81.32;98907.02;115554;1199;137626;-59
2021/09/02 03:32:58;;;;;;;7.20;5.80;;;;;;;13.35;81.17;98904.85;115688;1204;23059;-58
2021/09/02 03:35:26;;;;;;;8.10;5.00;;;;;;;13.33;81.16;98902.35;115670;1199;138013;-58
2021/09/02 03:37:54;;;;;;;9.30;5.20;;;;;;;13.33;81.17;98904.27;115716;1206;22309;-58
2021/09/02 03:40:24;;;;;;;6.60;5.40;;;;;;;13.33;81.07;98907.72;115621;1199;139230;-58
2021/09/02 03:42:52;;;;;;;10.60;5.50;;;;;;;13.31;81.16;98912.98;115778;1202;22321;-58
2021/09/02 03:45:20;;;;;;;8.20;5.30;;;;;;;13.30;81.02;98916.45;115710;1202;22255;-58
2021/09/02 03:47:48;;;;;;;6.60;4.70;;;;;;;13.28;80.99;98917.66;115630;1200;137738;-58
2021/09/02 03:50:17;;;;;;;15.10;5.10;;;;;;;13.28;81.12;98917.45;115766;1202;23202;-58
2021/09/02 03:52:45;;;;;;;10.50;4.90;;;;;;;13.30;81.14;98920.17;115514;1199;138525;-58
2021/09/02 03:55:13;;;;;;;10.00;5.00;;;;;;;13.32;80.88;98921.24;115703;1202;22425;-59
2021/09/02 03:57:41;;;;;;;7.80;4.40;;;;;;;13.33;80.88;98917.67;115696;1202;22133;-58
2021/09/02 04:00:10;;;;;;;8.70;4.30;;;;;;;13.35;80.92;98920.39;115596;1201;137743;-58
2021/09/02 04:02:39;;;;;;;14.20;5.50;;;;;;;13.38;80.72;98926.66;115661;1204;22351;-58
2021/09/02 04:05:09;;;;;;;8.90;5.00;;;;;;;13.40;80.45;98928.56;115666;1199;137998;-58
2021/09/02 04:07:37;;;;;;;10.50;4.60;;;;;;;13.40;80.46;98929.88;115707;1204;23267;-58
2021/09/02 04:10:06;;;;;;;6.60;4.80;;;;;;;13.41;80.47;98941.05;115749;1204;22966;-58
2021/09/02 04:12:34;;;;;;;7.80;4.60;;;;;;;13.43;80.25;98940.43;115629;1199;137405;-59
2021/09/02 04:15:02;;;;;;;9.20;5.00;;;;;;;13.45;80.32;98941.62;115572;1204;23523;-58
2021/09/02 04:17:31;;;;;;;9.90;4.90;;;;;;;13.47;80.25;98942.54;115691;1199;137948;-58
2021/09/02 04:19:59;;;;;;;10.70;5.70;;;;;;;13.48;79.96;98946.02;115753;1202;22321;-59
2021/09/02 04:22:27;;;;;;;9.60;5.30;;;;;;;13.48;79.64;98947.83;115564;1199;139015;-59
2021/09/02 04:25:00;;;;;;;7.50;4.80;;;;;;;13.47;79.30;98948.45;115814;1202;23395;-58
2021/09/02 04:27:30;;;;;;;8.30;5.20;;;;;;;13.45;79.38;98947.09;115739;1209;22313;-58
2021/09/02 04:29:58;;;;;;;10.30;5.40;;;;;;;13.46;79.40;98949.55;115633;1201;137783;-59
2021/09/02 04:32:26;;;;;;;7.80;4.80;;;;;;;13.47;79.32;98946.25;115585;1204;22340;-58
2021/09/02 04:34:54;;;;;;;8.50;5.10;;;;;;;13.47;79.29;98943.90;115613;1199;137774;-59
2021/09/02 04:37:22;;;;;;;12.30;5.10;;;;;;;13.47;79.23;98944.67;115763;1202;23166;-58
2021/09/02 04:39:50;;;;;;;11.80;5.50;;;;;;;13.45;79.02;98947.02;115790;1203;23029;-54
2021/09/02 04:42:19;;;;;;;7.70;4.80;;;;;;;13.42;78.96;98939.35;115615;1200;137758;-54
2021/09/02 04:44:47;;;;;;;10.00;5.30;;;;;;;13.42;78.97;98944.87;115761;1202;22376;-54
2021/09/02 04:47:15;;;;;;;9.90;5.20;;;;;;;13.42;78.93;98944.38;115669;1198;138407;-54
2021/09/02 04:49:43;;;;;;;10.60;5.00;;;;;;;13.42;78.94;98946.36;115706;1209;22303;-54
2021/09/02 04:52:16;;;;;;;8.90;5.20;;;;;;;13.45;79.03;98947.53;115593;1204;22235;-54
2021/09/02 04:56:06;;;;;;;9.40;5.80;;;;;;;13.49;78.73;98947.55;110128;1226;545858;-54
2021/09/02 04:58:34;;;;;;;7.70;5.40;;;;;;;13.46;78.64;98951.73;111268;1204;137298;-54
2021/09/02 05:01:02;;;;;;;8.30;5.50;;;;;;;13.45;78.79;98954.64;111155;1208;22464;-54
2021/09/02 05:03:30;;;;;;;7.20;5.10;;;;;;;13.45;79.11;98954.42;111519;1204;23842;-54
2021/09/02 05:05:59;;;;;;;11.00;5.30;;;;;;;13.45;79.00;98954.74;111486;1200;136958;-52
2021/09/02 05:08:27;;;;;;;12.90;5.80;;;;;;;13.44;78.53;98957.88;111429;1204;22449;-55
2021/09/02 05:11:13;;;;;;;14.30;6.70;;;;;;;13.41;78.61;98964.23;115423;1201;137251;-53
2021/09/02 05:13:42;;;;;;;7.60;5.40;;;;;;;13.38;78.53;98961.79;115568;1204;23017;-53
2021/09/02 05:16:10;;;;;;;12.80;5.60;;;;;;;13.37;78.58;98959.23;115351;1207;23277;-53
2021/09/02 05:18:38;;;;;;;11.90;5.90;;;;;;;13.37;78.56;98964.33;115371;1201;137617;-54
2021/09/02 05:21:06;;;;;;;10.70;5.30;;;;;;;13.36;78.64;98959.95;115490;1204;22072;-55
2021/09/02 05:23:35;;;;;;;10.40;5.10;;;;;;;13.37;78.66;98950.48;115385;1201;137870;-54
2021/09/02 05:26:03;;;;;;;10.10;5.10;;;;;;;13.39;78.47;98947.34;115498;1204;22187;-53
2021/09/02 05:28:31;;;;;;;9.70;4.80;;;;;;;13.41;78.19;98946.55;115450;1205;138142;-54
2021/09/02 05:30:59;;;;;;;10.90;6.20;;;;;;;13.41;78.07;98945.89;115491;1208;22313;-54
2021/09/02 05:33:28;;;;;;;10.80;5.80;;;;;;;13.40;78.27;98951.11;115494;1204;22341;-54
2021/09/02 05:35:56;;;;;;;8.40;4.40;;;;;;;13.41;78.33;98949.05;115415;1201;137476;-54
2021/09/02 05:38:24;;;;;;;13.50;6.50;;;;;;;13.46;78.36;98954.41;115512;1204;22334;-54
2021/09/02 05:40:52;;;;;;;14.20;6.30;;;;;;;13.51;77.94;98956.17;112430;1201;139174;-53
2021/09/02 05:43:21;;;;;;;13.10;6.20;;;;;;;13.55;77.65;98951.75;111401;1204;23318;-53
2021/09/02 05:45:50;;;;;;;9.50;5.10;;;;;;;13.60;76.85;98946.97;115440;1204;23404;-54
2021/09/02 05:48:18;;;;;;;13.70;6.40;;;;;;;13.63;76.44;98948.42;115408;1201;138215;-54
2021/09/02 05:50:50;;;;;;;16.00;5.90;;;;;;;13.66;76.30;98949.77;115524;1204;22401;-54
2021/09/02 05:53:19;;;;;;;9.20;4.90;;;;;;;13.69;75.97;98951.16;115379;1201;137950;-54
2021/09/02 05:55:50;;;;;;;14.70;5.10;;;;;;;13.72;75.49;98956.74;115554;1205;22367;-54
2021/09/02 05:58:19;;;;;;;14.70;4.40;;;;;;;13.75;74.78;98951.61;115336;1205;22326;-54
2021/09/02 06:00:48;;;;;;;9.80;4.50;;;;;;;13.78;74.64;98960.83;115409;1201;137339;-54
2021/09/02 06:03:16;;;;;;;11.70;5.50;;;;;;;13.81;73.56;98960.26;115490;1205;22358;-54
2021/09/02 06:05:45;;;;;;;10.00;4.70;;;;;;;13.82;73.14;98967.92;115356;1201;137868;-54
2021/09/02 06:08:13;;;;;;;9.50;4.90;;;;;;;13.80;72.06;98971.92;115460;1204;22428;-54
2021/09/02 06:10:41;;;;;;;12.20;4.50;;;;;;;13.77;71.29;98968.06;115362;1201;138806;-54
2021/09/02 06:13:10;;;;;;;15.20;4.40;;;;;;;13.74;71.54;98970.29;115506;1202;22302;-54
2021/09/02 06:15:38;;;;;;;10.50;4.10;;;;;;;13.75;71.48;98963.27;115427;1204;22307;-54
2021/09/02 06:18:06;;;;;;;9.50;4.50;;;;;;;13.75;71.03;98972.63;115400;1202;137706;-55
2021/09/02 06:20:34;;;;;;;6.80;3.70;;;;;;;13.76;70.59;98978.05;115514;1204;22284;-54
2021/09/02 06:23:04;;;;;;;6.40;3.60;;;;;;;13.77;70.26;98985.38;115373;1201;137428;-54
2021/09/02 06:25:31;;;;;;;10.30;3.40;;;;;;;13.78;70.36;98990.14;115509;1204;23232;-54
2021/09/02 06:27:59;;;;;;;8.30;3.80;;;;;;;13.78;69.29;98989.42;115519;1203;22367;-54
2021/09/02 06:30:28;;;;;;;6.50;3.60;;;;;;;13.76;69.44;98990.65;115414;1201;137424;-54
2021/09/02 06:32:56;;;;;;;10.90;3.60;;;;;;;13.75;69.58;98996.63;115559;1207;22435;-54
2021/09/02 06:35:24;;;;;;;8.90;3.50;;;;;;;13.74;68.25;98998.44;115443;1199;137892;-54
2021/09/02 06:37:52;;;;;;;8.80;3.20;;;;;;;13.69;67.39;98999.61;115539;1205;22394;-53
2021/09/02 06:40:20;;;;;;;7.60;3.40;;;;;;;13.63;67.42;98998.02;115542;1211;22298;-53
2021/09/02 06:43:08;;;;;;;7.90;3.60;;;;;;;13.60;67.92;98997.83;115560;1204;22323;-55
2021/09/02 06:45:38;;;;;;;6.50;3.10;;;;;;;13.61;67.59;99002.42;115484;1205;22291;-53
2021/09/02 06:48:07;;;;;;;7.60;3.20;;;;;;;13.62;66.78;99002.41;115436;1202;137656;-53
2021/09/02 06:50:36;;;;;;;9.80;3.00;;;;;;;13.63;66.05;99000.77;115593;1205;22347;-53
2021/09/02 06:53:04;;;;;;;5.40;2.70;;;;;;;13.68;65.09;98997.39;115454;1201;138073;-53
2021/09/02 06:55:32;;;;;;;6.40;2.80;;;;;;;13.72;64.91;98998.40;115712;1210;22532;-53
2021/09/02 06:58:00;;;;;;;10.70;3.10;;;;;;;13.76;62.79;99003.56;115712;1203;22276;-55
2021/09/02 07:00:28;;;;;;;8.20;3.00;;;;;;;13.78;61.72;99002.61;115596;1199;136890;-53
2021/09/02 07:02:57;;;;;;;5.20;2.80;;;;;;;13.82;60.19;99000.95;115749;1202;22370;-53
2021/09/02 07:05:25;;;;;;;7.30;2.50;;;;;;;13.87;57.89;99003.48;115626;1199;137900;-56
2021/09/02 07:07:54;;;;;;;13.20;2.80;;;;;;;13.94;55.53;99010.05;115735;1203;22298;-56
2021/09/02 07:10:49;;;;;;;8.10;2.30;;;;;;;14.03;54.61;99015.95;115436;1210;22961;-53
2021/09/02 07:13:17;;;;;;;4.50;2.20;;;;;;;14.06;53.30;99021.62;115626;1199;137072;-53
2021/09/02 07:15:45;;;;;;;9.90;2.70;;;;;;;14.01;53.14;99019.88;115705;1202;22231;-53
2021/09/02 07:18:13;;;;;;;6.40;2.70;;;;;;;13.98;53.74;99019.48;115597;1199;137885;-55
2021/09/02 07:20:43;;;;;;;13.10;3.10;;;;;;;14.01;54.59;99018.77;115713;1210;22335;-55
2021/09/02 07:23:11;;;;;;;6.90;2.60;;;;;;;14.11;55.66;99018.60;115602;1199;139601;-55
2021/09/02 07:25:40;;;;;;;9.30;3.00;;;;;;;14.23;52.94;99023.54;115725;1202;23466;-54
2021/09/02 07:28:08;;;;;;;4.70;2.40;;;;;;;14.28;52.42;99015.48;115782;1204;22220;-54
2021/09/02 07:30:36;;;;;;;9.90;2.80;;;;;;;14.29;52.57;99013.91;115552;1199;136665;-54
2021/09/02 07:33:04;;;;;;;8.20;2.70;;;;;;;14.30;53.15;99016.42;115722;1204;22430;-55
2021/09/02 07:35:32;;;;;;;7.60;2.60;;;;;;;14.30;53.10;99013.04;115637;1200;137751;-54
2021/09/02 07:38:00;;;;;;;6.50;2.60;;;;;;;14.26;53.71;99019.30;115550;1204;22223;-54
2021/09/02 07:40:28;;;;;;;17.30;4.20;;;;;;;14.25;53.24;99016.89;115489;1206;22369;-54
2021/09/02 07:42:56;;;;;;;6.10;2.70;;;;;;;14.28;53.32;99017.88;115662;1199;137596;-54
2021/09/02 07:45:24;;;;;;;5.10;2.30;;;;;;;14.29;52.90;99015.90;115726;1203;22309;-54
2021/09/02 07:47:52;;;;;;;5.40;2.40;;;;;;;14.30;53.17;99011.71;115616;1199;136780;-54
2021/09/02 07:50:20;;;;;;;6.60;1.90;;;;;;;14.35;52.83;99018.11;115701;1203;22310;-54
2021/09/02 07:52:49;;;;;;;7.90;2.60;;;;;;;14.42;52.11;99012.06;115741;1202;22334;-54
2021/09/02 07:55:17;;;;;;;5.80;2.20;;;;;;;14.48;52.64;99022.02;115653;1199;138057;-54
2021/09/02 07:57:48;;;;;;;6.20;2.20;;;;;;;14.57;52.48;99019.75;115661;1204;22384;-54
2021/09/02 08:00:17;;;;;;;10.20;2.90;;;;;;;14.64;51.83;99021.64;115591;1199;136998;-54
2021/09/02 08:02:46;;;;;;;14.00;2.60;;;;;;;14.60;52.31;99018.45;115779;1209;22306;-55
2021/09/02 08:05:14;;;;;;;7.20;2.30;;;;;;;14.54;52.41;99018.05;115377;1202;137524;-55
2021/09/02 08:07:55;;;;;;;4.20;2.40;;;;;;;14.50;52.62;99018.66;115709;1202;22252;-54
2021/09/02 08:10:24;;;;;;;6.50;2.80;;;;;;;14.48;52.52;99015.33;115780;1203;22281;-55
2021/09/02 08:13:12;;;;;;;7.70;2.30;;;;;;;14.45;53.04;99030.88;115589;1199;136682;-55
2021/09/02 08:15:40;;;;;;;3.90;2.10;;;;;;;14.45;53.39;99018.98;115715;1202;22800;-55
2021/09/02 08:18:28;;;;;;;4.00;2.10;;;;;;;14.53;52.63;99017.91;115399;1201;136978;-55
2021/09/02 08:20:56;;;;;;;4.00;2.80;;;;;;;14.61;52.87;99023.59;115746;1202;23045;-56
2021/09/02 08:23:24;;;;;;;6.80;2.50;;;;;;;14.69;52.64;99010.05;115423;1201;136907;-55
2021/09/02 08:25:52;;;;;;;4.90;2.10;;;;;;;14.73;51.24;99004.15;115706;1204;22460;-54
2021/09/02 08:28:20;;;;;;;3.90;2.00;;;;;;;14.77;52.08;99005.52;115705;1210;22302;-54
2021/09/02 08:30:48;;;;;;;4.50;2.30;;;;;;;14.84;52.29;99008.11;115629;1199;137022;-54
2021/09/02 08:33:18;;;;;;;4.70;2.10;;;;;;;14.92;51.69;99006.39;115503;1203;23778;-50
2021/09/02 08:35:50;;;;;;;11.80;2.40;;;;;;;15.00;50.09;99007.96;114614;1197;139168;-90
2021/09/02 08:38:19;;;;;;;7.30;2.30;;;;;;;15.04;49.58;99007.89;114197;1204;23460;-89
2021/09/02 08:40:47;;;;;;;9.90;2.40;;;;;;;15.03;48.62;99005.10;115268;1204;22548;-89
2021/09/02 08:43:21;;;;;;;6.90;2.30;;;;;;;14.96;48.39;99006.00;114041;1207;136542;-88
2021/09/02 08:46:10;;;;;;;5.70;2.50;;;;;;;14.90;49.01;99006.41;113938;1200;22429;-88
2021/09/02 08:48:45;;;;;;;3.90;2.10;;;;;;;14.84;49.70;99000.92;113837;1203;136740;-90
2021/09/02 08:51:15;;;;;;;7.20;2.30;;;;;;;14.80;50.94;99000.27;114004;1209;22450;-89
2021/09/02 08:53:44;;;;;;;6.30;2.60;;;;;;;14.79;51.17;99011.41;113601;1203;137170;-90
2021/09/02 08:56:13;;;;;;;9.90;1.80;;;;;;;14.80;51.18;99006.69;114308;1204;22478;-89
2021/09/02 08:58:42;;;;;;;3.70;1.90;;;;;;;14.85;50.56;99003.38;113788;1207;24002;-89
2021/09/02 09:01:11;;;;;;;7.50;2.10;;;;;;;14.92;50.09;99006.88;113338;1206;137332;-90
2021/09/02 09:03:40;;;;;;;6.40;2.20;;;;;;;14.99;50.64;99000.91;113653;1214;22616;-84
2021/09/02 09:06:10;;;;;;;5.90;1.80;;;;;;;15.03;49.58;99002.58;113329;1209;137595;-84
2021/09/02 09:08:43;;;;;;;8.10;2.40;;;;;;;15.04;49.02;98999.65;113787;1210;22568;-84
2021/09/02 09:11:31;;;;;;;5.70;2.00;;;;;;;15.01;49.13;99006.45;115267;1216;136617;-84
2021/09/02 09:14:11;;;;;;;4.50;2.00;;;;;;;14.99;50.01;99006.84;113624;1210;22445;-84
2021/09/02 09:16:51;;;;;;;4.20;1.80;;;;;;;14.99;51.02;99002.39;113683;1210;24368;-87
2021/09/02 09:19:52;;;;;;;9.00;1.80;;;;;;;15.04;51.49;99005.91;113636;1206;136879;-83
2021/09/02 09:22:24;;;;;;;7.20;1.90;;;;;;;15.12;51.41;99002.32;113834;1216;22486;-83
2021/09/02 09:24:54;;;;;;;9.10;2.40;;;;;;;15.23;50.00;99004.34;113661;1206;137631;-83
2021/09/02 09:27:25;;;;;;;7.50;2.00;;;;;;;15.32;48.73;98997.96;113640;1209;22466;-85
2021/09/02 09:30:16;;;;;;;16.90;2.50;;;;;;;15.34;49.25;99001.06;113683;1212;135942;-83
2021/09/02 09:32:55;;;;;;;9.10;2.20;;;;;;;15.36;49.55;98998.06;113897;1208;22426;-84
2021/09/02 09:35:31;;;;;;;13.20;7.80;;;;;;;15.37;48.09;99015.39;113899;1207;137280;-85
2021/09/02 09:38:10;;;;;;;9.60;6.30;;;;;;;15.25;48.10;99013.96;113942;1207;22439;-83
2021/09/02 09:40:43;;;;;;;9.40;5.00;;;;;;;15.08;47.23;99014.96;113600;1209;23930;-81
2021/09/02 09:43:22;;;;;;;21.60;13.70;;;;;;;14.95;48.16;99019.13;113428;1205;136843;-85
2021/09/02 09:45:51;;;;;;;11.60;3.80;;;;;;;14.87;47.84;99019.95;113786;1210;22517;-83
2021/09/02 09:48:38;;;;;;;6.00;2.30;;;;;;;14.82;47.77;99024.94;113614;1201;137724;-84
2021/09/02 09:51:14;;;;;;;4.50;2.20;;;;;;;14.76;47.59;99025.66;113823;1210;24072;-84
2021/09/02 09:53:53;;;;;;;11.70;2.30;;;;;;;14.80;48.36;99029.99;113791;1205;136516;-84
2021/09/02 09:56:36;;;;;;;3.70;1.80;;;;;;;14.91;48.65;99030.05;113518;1210;22470;-84
2021/09/02 09:59:28;;;;;;;7.90;2.10;;;;;;;15.00;48.38;99028.37;113406;1214;137586;-83
2021/09/02 10:02:00;;;;;;;4.80;1.70;;;;;;;15.04;48.27;99027.27;113370;1209;25062;-82
2021/09/02 10:04:40;;;;;;;12.40;1.80;;;;;;;14.97;47.38;99032.42;113433;1215;22953;-81
2021/09/02 10:07:29;;;;;;;6.20;1.90;;;;;;;14.96;47.51;99029.70;113576;1214;137595;-85
2021/09/02 10:10:09;;;;;;;3.00;1.90;;;;;;;14.96;47.82;99033.87;113431;1212;22516;-84
2021/09/02 10:12:47;;;;;;;5.30;1.90;;;;;;;14.96;47.04;99042.15;113237;1208;137443;-84
2021/09/02 10:15:17;;;;;;;5.30;2.00;;;;;;;14.91;47.60;99036.25;113296;1212;22963;-83
2021/09/02 10:18:05;;;;;;;6.80;2.60;;;;;;;14.88;47.81;99044.78;115009;1218;136380;-83
2021/09/02 10:20:34;;;;;;;7.20;1.80;;;;;;;14.90;47.82;99042.63;113484;1212;22548;-85
2021/09/02 10:23:03;;;;;;;6.40;2.10;;;;;;;14.94;47.76;99053.44;113425;1206;137066;-83
2021/09/02 10:25:34;;;;;;;3.00;1.80;;;;;;;14.99;47.32;99038.48;113521;1211;22526;-82
2021/09/02 10:28:13;;;;;;;4.90;2.10;;;;;;;15.01;47.26;99046.00;113725;1205;23338;-85
2021/09/02 10:30:55;;;;;;;9.20;2.30;;;;;;;14.98;46.92;99051.19;113957;1205;136921;-81
2021/09/02 10:33:42;;;;;;;6.00;2.30;;;;;;;14.90;46.88;99062.83;114072;1204;22533;-82
2021/09/02 10:36:14;;;;;;;2.80;1.70;;;;;;;14.77;48.18;99066.57;114557;1203;137734;-86
2021/09/02 10:38:56;;;;;;;6.00;2.20;;;;;;;14.69;47.93;99070.42;113826;1206;22460;-83
2021/09/02 10:41:37;;;;;;;7.00;2.30;;;;;;;14.67;47.11;99094.25;113671;1204;138529;-83
2021/09/02 10:44:09;;;;;;;5.20;1.90;;;;;;;14.62;50.85;99094.65;113898;1207;23797;-85
2021/09/02 10:47:33;;;;;;;3.30;1.80;;;;;;;14.31;51.13;99077.59;113886;1209;22507;-87
2021/09/02 10:51:00;;;;;;;4.30;2.30;;;;;;;13.96;52.29;99086.05;114065;1207;23221;-93
2021/09/02 10:53:49;;;;;;;7.50;2.40;;;;;;;13.88;52.32;99082.30;114113;1200;23317;-90
2021/09/02 10:57:04;;;;;;;5.50;2.50;;;;;;;13.92;53.19;99087.79;114212;1206;22429;-89
2021/09/02 11:00:28;;;;;;;8.20;2.20;;;;;;;14.06;52.46;99083.57;114026;1204;137030;-87
2021/09/02 11:03:19;;;;;;;4.60;1.80;;;;;;;14.24;49.43;99092.64;113783;1217;22476;-89
2021/09/02 11:09:03;;;;;;;;;;;;;;;14.34;47.42;99110.37;113767;1212;23712;-90
2021/09/02 11:11:55;;;;;;;6.30;2.30;;;;;;;14.24;48.39;99107.48;113370;1206;123646;-89
2021/09/02 11:14:24;;;;;;;3.50;1.80;;;;;;;14.15;49.18;99105.17;113754;1217;22478;-89
2021/09/02 11:17:06;;;;;;;5.70;2.00;;;;;;;14.13;49.04;99107.13;113465;1216;23988;-88
2021/09/02 11:19:37;;;;;;;6.40;1.90;;;;;;;14.14;46.90;99110.15;113847;1211;136974;-88
2021/09/02 11:22:18;;;;;;;10.40;2.10;;;;;;;14.15;46.41;99111.95;114639;1211;24027;-89
2021/09/02 11:24:51;;;;;;;11.80;2.50;;;;;;;14.15;46.59;99111.46;114079;1208;137410;-90
2021/09/02 11:27:33;;;;;;;4.60;2.50;;;;;;;14.21;46.91;99108.02;113433;1214;24760;-90
2021/09/02 11:30:18;;;;;;;5.10;2.20;;;;;;;14.30;46.08;99107.09;113467;1209;136376;-87
2021/09/02 11:33:01;;;;;;;3.80;1.60;;;;;;;14.44;46.58;99109.25;113724;1213;22495;-88
2021/09/02 11:35:55;;;;;;;5.70;1.70;;;;;;;14.59;47.13;99105.15;113530;1208;137131;-87
2021/09/02 11:38:31;;;;;;;4.70;2.10;;;;;;;14.72;47.69;99105.63;113624;1214;22450;-91
2021/09/02 11:41:06;;;;;;;4.50;2.30;;;;;;;14.80;47.40;99114.09;113690;1212;23407;-89
2021/09/02 11:43:38;;;;;;;5.20;1.80;;;;;;;14.78;48.28;99115.43;113625;1208;136780;-88
2021/09/02 11:46:26;;;;;;;4.90;1.80;;;;;;;14.65;49.29;99132.93;113749;1208;25154;-90